createdAt,value
2018-07-04T00:00:03.783Z,13.70
2018-07-04T00:01:03.768Z,8.30
2018-07-04T00:02:03.753Z,12.50
2018-07-04T00:03:03.748Z,12.20
2018-07-04T00:04:03.735Z,11.50
2018-07-04T00:05:03.733Z,13.60
2018-07-04T00:06:03.710Z,9.70
2018-07-04T00:07:03.699Z,16.80
2018-07-04T00:08:03.680Z,13.10
2018-07-04T00:09:03.670Z,10.60
2018-07-04T00:10:03.651Z,9.80
2018-07-04T00:11:03.651Z,15.00
2018-07-04T00:12:03.628Z,18.00
2018-07-04T00:13:03.628Z,11.80
2018-07-04T00:14:03.604Z,13.60
2018-07-04T00:15:03.596Z,11.50
2018-07-04T00:16:03.580Z,14.40
2018-07-04T00:17:03.563Z,11.90
2018-07-04T00:18:03.564Z,11.60
2018-07-04T00:19:03.541Z,10.40
2018-07-04T00:20:03.547Z,15.60
2018-07-04T00:21:03.517Z,10.60
2018-07-04T00:22:03.498Z,10.50
2018-07-04T00:23:03.492Z,14.00
2018-07-04T00:24:03.481Z,12.50
2018-07-04T00:25:03.466Z,12.80
2018-07-04T00:26:03.454Z,15.00
2018-07-04T00:27:03.435Z,11.00
2018-07-04T00:28:03.422Z,12.90
2018-07-04T00:29:03.422Z,14.30
2018-07-04T00:30:03.402Z,10.20
2018-07-04T00:31:03.382Z,14.20
2018-07-04T00:32:03.376Z,16.20
2018-07-04T00:33:03.363Z,12.40
2018-07-04T00:34:03.348Z,16.90
2018-07-04T00:35:03.331Z,13.10
2018-07-04T00:36:03.315Z,14.20
2018-07-04T00:37:03.306Z,14.40
2018-07-04T00:38:03.298Z,16.50
2018-07-04T00:39:03.282Z,13.50
2018-07-04T00:40:03.265Z,10.70
2018-07-04T00:41:03.260Z,13.00
2018-07-04T00:42:03.256Z,19.90
2018-07-04T00:43:03.226Z,10.20
2018-07-04T00:44:03.213Z,15.80
2018-07-04T00:45:03.200Z,13.70
2018-07-04T00:46:03.195Z,12.80
2018-07-04T00:47:03.175Z,16.40
2018-07-04T00:48:03.161Z,9.20
2018-07-04T00:49:03.144Z,10.70
2018-07-04T00:50:03.137Z,14.50
2018-07-04T00:51:03.130Z,13.30
2018-07-04T00:52:03.114Z,13.00
2018-07-04T00:53:03.092Z,13.80
2018-07-04T00:54:03.079Z,12.30
2018-07-04T00:55:03.079Z,11.60
2018-07-04T00:56:03.066Z,12.20
2018-07-04T00:57:03.046Z,17.20
2018-07-04T00:58:03.037Z,12.60
2018-07-04T00:59:03.021Z,10.40
2018-07-04T01:00:03.014Z,11.90
2018-07-04T01:01:02.990Z,11.20
2018-07-04T01:02:02.981Z,12.60
2018-07-04T01:03:02.963Z,12.20
2018-07-04T01:04:02.953Z,12.20
2018-07-04T01:05:02.945Z,12.90
2018-07-04T01:06:02.925Z,13.80
2018-07-04T01:07:02.914Z,15.50
2018-07-04T01:08:02.904Z,15.40
2018-07-04T01:09:02.888Z,16.40
2018-07-04T01:10:02.868Z,13.00
2018-07-04T01:11:02.860Z,11.00
2018-07-04T01:12:02.846Z,13.10
2018-07-04T01:13:02.832Z,13.20
2018-07-04T01:14:02.825Z,15.00
2018-07-04T01:15:02.804Z,13.90
2018-07-04T01:16:02.797Z,13.40
2018-07-04T01:17:02.784Z,13.30
2018-07-04T01:18:02.777Z,16.30
2018-07-04T01:19:02.751Z,13.20
2018-07-04T01:20:02.732Z,13.40
2018-07-04T01:21:02.734Z,12.40
2018-07-04T01:22:02.710Z,14.40
2018-07-04T01:23:02.697Z,15.90
2018-07-04T01:24:02.688Z,17.00
2018-07-04T01:25:02.674Z,17.60
2018-07-04T01:26:02.660Z,13.60
2018-07-04T01:27:02.649Z,15.10
2018-07-04T01:28:02.630Z,15.00
2018-07-04T01:29:02.622Z,13.80
2018-07-04T01:30:02.608Z,15.90
2018-07-04T01:31:02.614Z,15.30
2018-07-04T01:32:02.578Z,15.80
2018-07-04T01:33:02.567Z,15.00
2018-07-04T01:34:02.550Z,13.00
2018-07-04T01:35:02.539Z,12.50
2018-07-04T01:36:02.525Z,14.20
2018-07-04T01:37:02.512Z,15.50
2018-07-04T01:38:02.502Z,13.20
2018-07-04T01:39:02.488Z,15.30
2018-07-04T01:40:02.469Z,13.30
2018-07-04T01:41:02.459Z,14.30
2018-07-04T01:42:02.442Z,14.00
2018-07-04T01:43:02.429Z,13.40
2018-07-04T01:44:02.423Z,14.30
2018-07-04T01:45:02.405Z,13.40
2018-07-04T01:46:02.395Z,15.90
2018-07-04T01:47:02.390Z,15.30
2018-07-04T01:48:02.363Z,13.60
2018-07-04T01:49:02.349Z,15.80
2018-07-04T01:50:02.332Z,13.70
2018-07-04T01:51:02.324Z,14.10
2018-07-04T01:52:02.306Z,18.40
2018-07-04T01:53:02.292Z,13.80
2018-07-04T01:54:02.283Z,17.40
2018-07-04T01:55:02.262Z,14.90
2018-07-04T01:56:02.267Z,13.10
2018-07-04T01:57:02.242Z,16.70
2018-07-04T01:58:02.236Z,16.50
2018-07-04T01:59:02.219Z,16.20
2018-07-04T02:00:02.201Z,15.60
2018-07-04T02:01:02.186Z,13.10
2018-07-04T02:02:02.174Z,16.20
2018-07-04T02:03:02.167Z,15.30
2018-07-04T02:04:02.149Z,14.70
2018-07-04T02:05:02.135Z,17.70
2018-07-04T02:06:02.118Z,15.50
2018-07-04T02:07:02.107Z,18.60
2018-07-04T02:08:02.093Z,18.10
2018-07-04T02:09:02.078Z,16.60
2018-07-04T02:10:02.073Z,14.80
2018-07-04T02:11:02.047Z,15.80
2018-07-04T02:12:02.039Z,15.90
2018-07-04T02:13:02.021Z,15.90
2018-07-04T02:14:02.007Z,14.80
2018-07-04T02:15:01.990Z,15.90
2018-07-04T02:16:01.986Z,14.10
2018-07-04T02:17:01.995Z,16.00
2018-07-04T02:18:01.952Z,16.30
2018-07-04T02:19:01.943Z,13.70
2018-07-04T02:20:01.931Z,18.40
2018-07-04T02:21:01.917Z,18.80
2018-07-04T02:22:01.898Z,18.10
2018-07-04T02:23:01.897Z,17.40
2018-07-04T02:24:01.870Z,18.00
2018-07-04T02:25:01.862Z,16.70
2018-07-04T02:26:01.852Z,14.80
2018-07-04T02:27:01.829Z,18.90
2018-07-04T02:28:01.813Z,18.80
2018-07-04T02:29:01.801Z,16.80
2018-07-04T02:30:01.790Z,15.40
2018-07-04T02:31:01.781Z,18.10
2018-07-04T02:32:01.763Z,16.30
2018-07-04T02:33:01.746Z,17.50
2018-07-04T02:34:01.737Z,14.70
2018-07-04T02:35:01.719Z,14.60
2018-07-04T02:36:01.709Z,19.90
2018-07-04T02:37:01.693Z,16.30
2018-07-04T02:38:01.696Z,15.80
2018-07-04T02:39:01.666Z,16.60
2018-07-04T02:40:01.645Z,21.30
2018-07-04T02:41:01.648Z,18.40
2018-07-04T02:42:01.635Z,20.40
2018-07-04T02:43:01.609Z,18.30
2018-07-04T02:44:01.595Z,15.40
2018-07-04T02:45:01.713Z,20.20
2018-07-04T02:46:01.573Z,21.00
2018-07-04T02:47:01.550Z,22.30
2018-07-04T02:48:01.537Z,18.30
2018-07-04T02:49:01.529Z,21.10
2018-07-04T02:50:01.514Z,16.10
2018-07-04T02:51:01.504Z,17.50
2018-07-04T02:52:01.501Z,17.20
2018-07-04T02:53:01.467Z,18.80
2018-07-04T02:54:01.458Z,18.50
2018-07-04T02:55:01.444Z,21.50
2018-07-04T02:56:01.432Z,18.30
2018-07-04T02:57:01.415Z,18.60
2018-07-04T02:58:01.403Z,16.50
2018-07-04T02:59:01.385Z,17.80
2018-07-04T03:00:01.381Z,23.50
2018-07-04T03:01:01.362Z,21.40
2018-07-04T03:02:01.341Z,17.10
2018-07-04T03:03:01.333Z,18.00
2018-07-04T03:04:01.319Z,18.70
2018-07-04T03:05:01.302Z,17.70
2018-07-04T03:06:01.294Z,21.00
2018-07-04T03:07:01.281Z,17.80
2018-07-04T03:08:01.259Z,20.80
2018-07-04T03:09:01.239Z,15.80
2018-07-04T03:10:01.233Z,19.10
2018-07-04T03:11:01.220Z,18.20
2018-07-04T03:12:01.203Z,15.80
2018-07-04T03:13:01.186Z,24.30
2018-07-04T03:14:01.171Z,19.40
2018-07-04T03:15:01.158Z,17.00
2018-07-04T03:16:01.151Z,18.00
2018-07-04T03:17:01.153Z,17.90
2018-07-04T03:18:01.116Z,17.10
2018-07-04T03:19:01.106Z,19.80
2018-07-04T03:20:01.091Z,16.10
2018-07-04T03:21:01.078Z,24.20
2018-07-04T03:22:01.065Z,19.10
2018-07-04T03:23:01.046Z,23.00
2018-07-04T03:24:01.034Z,20.50
2018-07-04T03:25:01.037Z,20.20
2018-07-04T03:26:01.005Z,20.10
2018-07-04T03:27:00.992Z,21.80
2018-07-04T03:28:00.979Z,20.50
2018-07-04T03:29:00.965Z,16.00
2018-07-04T03:30:00.950Z,19.50
2018-07-04T03:31:00.939Z,18.70
2018-07-04T03:32:00.929Z,25.00
2018-07-04T03:33:00.952Z,19.10
2018-07-04T03:34:00.925Z,19.30
2018-07-04T03:35:00.938Z,22.40
2018-07-04T03:36:00.886Z,18.60
2018-07-04T03:37:00.865Z,20.90
2018-07-04T03:38:00.831Z,21.00
2018-07-04T03:39:00.882Z,19.10
2018-07-04T03:40:00.812Z,18.60
2018-07-04T03:41:00.841Z,18.80
2018-07-04T03:42:00.776Z,21.00
2018-07-04T03:43:00.760Z,18.20
2018-07-04T03:44:00.748Z,20.40
2018-07-04T03:45:00.737Z,20.80
2018-07-04T03:46:00.726Z,20.60
2018-07-04T03:47:00.703Z,21.00
2018-07-04T03:48:00.690Z,20.10
2018-07-04T03:49:00.686Z,18.60
2018-07-04T03:50:00.663Z,18.60
2018-07-04T03:51:00.653Z,19.50
2018-07-04T03:52:00.640Z,19.20
2018-07-04T03:53:00.625Z,18.80
2018-07-04T03:54:00.612Z,20.50
2018-07-04T03:55:00.619Z,22.60
2018-07-04T03:56:00.591Z,20.90
2018-07-04T03:57:00.563Z,19.30
2018-07-04T03:58:00.569Z,20.30
2018-07-04T03:59:00.549Z,17.70
2018-07-04T04:00:00.528Z,23.10
2018-07-04T04:01:00.509Z,25.60
2018-07-04T04:02:00.517Z,19.80
2018-07-04T04:03:00.488Z,21.90
2018-07-04T04:04:00.486Z,21.10
2018-07-04T04:05:00.464Z,23.50
2018-07-04T04:06:00.439Z,22.70
2018-07-04T04:07:00.431Z,24.90
2018-07-04T04:08:00.416Z,18.30
2018-07-04T04:09:00.414Z,24.20
2018-07-04T04:10:00.392Z,22.50
2018-07-04T04:11:00.377Z,21.00
2018-07-04T04:12:00.349Z,21.60
2018-07-04T04:13:00.341Z,17.50
2018-07-04T04:14:00.331Z,17.20
2018-07-04T04:15:00.315Z,18.10
2018-07-04T04:16:00.303Z,18.90
2018-07-04T04:17:00.293Z,21.70
2018-07-04T04:18:00.270Z,17.70
2018-07-04T04:19:00.261Z,17.70
2018-07-04T04:20:00.242Z,22.90
2018-07-04T04:21:00.229Z,22.80
2018-07-04T04:22:00.217Z,19.30
2018-07-04T04:23:00.205Z,18.20
2018-07-04T04:24:00.199Z,22.50
2018-07-04T04:25:00.179Z,17.20
2018-07-04T04:26:00.161Z,17.20
2018-07-04T04:27:00.189Z,22.20
2018-07-04T04:28:00.133Z,22.90
2018-07-04T04:29:00.282Z,19.50
2018-07-04T04:30:00.117Z,20.90
2018-07-04T04:31:00.096Z,20.10
2018-07-04T04:32:00.080Z,17.40
2018-07-04T04:33:00.111Z,21.40
2018-07-04T04:34:00.048Z,16.80
2018-07-04T04:35:00.035Z,20.60
2018-07-04T04:36:00.026Z,22.30
2018-07-04T04:37:00.011Z,23.50
2018-07-04T04:37:59.996Z,20.10
2018-07-04T04:38:59.979Z,18.40
2018-07-04T04:39:59.967Z,17.60
2018-07-04T04:40:59.949Z,20.10
2018-07-04T04:41:59.935Z,20.40
2018-07-04T04:42:59.928Z,22.00
2018-07-04T04:43:59.909Z,19.30
2018-07-04T04:44:59.907Z,20.90
2018-07-04T04:45:59.889Z,21.10
2018-07-04T04:46:59.866Z,18.80
2018-07-04T04:47:59.870Z,17.70
2018-07-04T04:48:59.884Z,19.00
2018-07-04T04:49:59.853Z,20.80
2018-07-04T04:50:59.836Z,17.20
2018-07-04T04:51:59.821Z,19.10
2018-07-04T04:52:59.799Z,19.10
2018-07-04T04:53:59.774Z,22.30
2018-07-04T04:54:59.774Z,20.00
2018-07-04T04:55:59.762Z,22.30
2018-07-04T04:56:59.745Z,22.80
2018-07-04T04:57:59.744Z,19.10
2018-07-04T04:58:59.765Z,23.50
2018-07-04T04:59:59.770Z,16.20
2018-07-04T05:00:59.712Z,22.50
2018-07-04T05:01:59.684Z,15.80
2018-07-04T05:02:59.664Z,18.60
2018-07-04T05:03:59.671Z,20.20
2018-07-04T05:04:59.649Z,19.50
2018-07-04T05:05:59.636Z,20.20
2018-07-04T05:06:59.617Z,20.10
2018-07-04T05:07:59.613Z,19.60
2018-07-04T05:08:59.576Z,15.60
2018-07-04T05:09:59.570Z,19.90
2018-07-04T05:10:59.558Z,17.80
2018-07-04T05:11:59.558Z,18.60
2018-07-04T05:12:59.526Z,18.50
2018-07-04T05:13:59.520Z,19.70
2018-07-04T05:14:59.520Z,19.10
2018-07-04T05:15:59.491Z,19.10
2018-07-04T05:16:59.488Z,22.20
2018-07-04T05:17:59.464Z,22.60
2018-07-04T05:18:59.474Z,18.60
2018-07-04T05:19:59.460Z,17.70
2018-07-04T05:20:59.440Z,17.90
2018-07-04T05:21:59.459Z,19.10
2018-07-04T05:22:59.431Z,22.30
2018-07-04T05:23:59.379Z,20.80
2018-07-04T05:24:59.367Z,22.10
2018-07-04T05:25:59.358Z,21.70
2018-07-04T05:26:59.343Z,18.10
2018-07-04T05:27:59.345Z,19.40
2018-07-04T05:28:59.358Z,18.20
2018-07-04T05:29:59.323Z,16.20
2018-07-04T05:30:59.296Z,19.70
2018-07-04T05:31:59.272Z,18.20
2018-07-04T05:32:59.266Z,19.30
2018-07-04T05:33:59.246Z,19.30
2018-07-04T05:34:59.243Z,18.40
2018-07-04T05:35:59.216Z,21.30
2018-07-04T05:36:59.212Z,16.40
2018-07-04T05:37:59.222Z,18.70
2018-07-04T05:38:59.211Z,19.90
2018-07-04T05:39:59.162Z,19.00
2018-07-04T05:41:59.236Z,21.20
2018-07-04T05:42:59.118Z,16.90
2018-07-04T05:43:59.129Z,20.00
2018-07-04T05:44:59.117Z,16.80
2018-07-04T05:45:59.150Z,19.30
2018-07-04T05:46:59.111Z,21.40
2018-07-04T05:47:59.078Z,18.00
2018-07-04T05:48:59.052Z,20.50
2018-07-04T05:49:59.061Z,19.10
2018-07-04T05:50:59.028Z,21.00
2018-07-04T05:51:59.021Z,17.50
2018-07-04T05:52:58.994Z,15.50
2018-07-04T05:53:58.993Z,16.90
2018-07-04T05:54:58.992Z,16.30
2018-07-04T05:55:58.993Z,17.70
2018-07-04T05:56:58.952Z,17.40
2018-07-04T05:57:58.930Z,16.50
2018-07-04T05:58:58.943Z,12.00
2018-07-04T05:59:58.935Z,22.00
2018-07-04T06:00:58.924Z,16.40
2018-07-04T06:01:58.898Z,18.40
2018-07-04T06:02:58.886Z,18.70
2018-07-04T06:03:58.870Z,18.80
2018-07-04T06:04:58.878Z,21.20
2018-07-04T06:05:58.874Z,18.90
2018-07-04T06:06:58.865Z,19.30
2018-07-04T06:07:58.835Z,15.70
2018-07-04T06:08:58.833Z,15.20
2018-07-04T06:09:58.822Z,16.30
2018-07-04T06:10:58.794Z,15.70
2018-07-04T06:11:58.816Z,18.70
2018-07-04T06:12:58.823Z,14.80
2018-07-04T06:13:58.747Z,14.90
2018-07-04T06:14:58.769Z,17.90
2018-07-04T06:15:58.758Z,14.10
2018-07-04T06:16:58.939Z,18.60
2018-07-04T06:17:58.843Z,18.20
2018-07-04T06:18:58.818Z,13.50
2018-07-04T06:19:58.678Z,17.00
2018-07-04T06:20:58.686Z,14.40
2018-07-04T06:21:58.662Z,15.30
2018-07-04T06:22:58.638Z,12.60
2018-07-04T06:23:58.616Z,17.00
2018-07-04T06:24:58.615Z,12.00
2018-07-04T06:25:58.615Z,11.50
2018-07-04T06:26:58.611Z,12.60
2018-07-04T06:27:58.580Z,13.10
2018-07-04T06:28:58.566Z,13.10
2018-07-04T06:29:58.564Z,11.90
2018-07-04T06:30:58.552Z,12.80
2018-07-04T06:31:58.544Z,14.20
2018-07-04T06:32:58.536Z,10.80
2018-07-04T06:33:58.528Z,17.10
2018-07-04T06:34:58.507Z,15.60
2018-07-04T06:35:58.530Z,17.40
2018-07-04T06:36:58.520Z,12.30
2018-07-04T06:37:58.499Z,11.00
2018-07-04T06:38:58.488Z,14.60
2018-07-04T06:39:58.461Z,14.90
2018-07-04T06:40:58.434Z,15.10
2018-07-04T06:41:58.483Z,13.10
2018-07-04T06:42:58.424Z,15.70
2018-07-04T06:43:58.427Z,15.80
2018-07-04T06:44:58.405Z,16.90
2018-07-04T06:45:58.469Z,16.00
2018-07-04T06:46:58.410Z,15.30
2018-07-04T06:47:58.365Z,13.80
2018-07-04T06:48:58.408Z,14.80
2018-07-04T06:49:58.348Z,17.40
2018-07-04T06:50:58.366Z,19.00
2018-07-04T06:51:58.332Z,16.40
2018-07-04T06:52:58.322Z,18.00
2018-07-04T06:53:58.318Z,13.90
2018-07-04T06:54:58.340Z,16.30
2018-07-04T06:55:58.298Z,15.70
2018-07-04T06:56:58.315Z,14.40
2018-07-04T06:57:58.297Z,17.50
2018-07-04T06:58:58.250Z,18.50
2018-07-04T06:59:58.258Z,16.20
2018-07-04T07:00:58.250Z,31.90
2018-07-04T07:01:58.286Z,13.10
2018-07-04T07:02:58.221Z,15.50
2018-07-04T07:03:58.229Z,16.70
2018-07-04T07:04:58.251Z,17.60
2018-07-04T07:05:58.223Z,18.70
2018-07-04T07:06:58.212Z,15.90
2018-07-04T07:07:58.191Z,14.80
2018-07-04T07:08:58.179Z,14.90
2018-07-04T07:09:58.150Z,15.00
2018-07-04T07:10:58.138Z,17.80
2018-07-04T07:11:58.120Z,14.70
2018-07-04T07:12:58.131Z,20.80
2018-07-04T07:13:58.137Z,18.60
2018-07-04T07:14:58.110Z,22.30
2018-07-04T07:15:58.282Z,24.90
2018-07-04T07:16:58.107Z,27.90
2018-07-04T07:17:58.093Z,16.40
2018-07-04T07:18:58.076Z,15.00
2018-07-04T07:19:58.075Z,17.60
2018-07-04T07:20:58.045Z,17.70
2018-07-04T07:21:58.054Z,16.10
2018-07-04T07:22:58.019Z,18.70
2018-07-04T07:23:58.013Z,19.10
2018-07-04T07:24:58.028Z,18.70
2018-07-04T07:25:58.005Z,17.80
2018-07-04T07:26:58.004Z,15.40
2018-07-04T07:27:58.018Z,16.20
2018-07-04T07:28:57.969Z,19.20
2018-07-04T07:29:58.006Z,20.10
2018-07-04T07:30:57.968Z,15.80
2018-07-04T07:31:57.965Z,14.20
2018-07-04T07:32:57.989Z,15.10
2018-07-04T07:33:57.975Z,16.70
2018-07-04T07:34:57.931Z,14.50
2018-07-04T07:35:57.950Z,18.10
2018-07-04T07:36:57.918Z,18.00
2018-07-04T07:37:57.994Z,17.30
2018-07-04T07:38:57.866Z,13.50
2018-07-04T07:39:57.922Z,13.70
2018-07-04T07:40:57.927Z,16.20
2018-07-04T07:41:57.933Z,14.10
2018-07-04T07:42:57.843Z,14.90
2018-07-04T07:43:57.890Z,16.90
2018-07-04T07:44:57.824Z,12.50
2018-07-04T07:45:57.818Z,12.50
2018-07-04T07:46:57.841Z,14.50
2018-07-04T07:47:57.806Z,15.70
2018-07-04T07:48:57.776Z,14.70
2018-07-04T07:49:57.788Z,12.60
2018-07-04T07:50:57.777Z,12.30
2018-07-04T07:51:57.763Z,12.50
2018-07-04T07:52:57.782Z,9.90
2018-07-04T07:53:57.794Z,13.30
2018-07-04T07:54:57.755Z,11.30
2018-07-04T07:55:57.731Z,11.40
2018-07-04T07:56:57.785Z,15.40
2018-07-04T07:57:57.731Z,8.80
2018-07-04T07:58:57.704Z,10.60
2018-07-04T07:59:57.717Z,11.40
2018-07-04T08:00:57.827Z,11.30
2018-07-04T08:01:57.822Z,9.40
2018-07-04T08:02:57.778Z,10.40
2018-07-04T08:03:57.745Z,11.70
2018-07-04T08:04:57.695Z,9.20
2018-07-04T08:05:57.856Z,8.60
2018-07-04T08:06:57.700Z,14.70
2018-07-04T08:07:57.730Z,16.70
2018-07-04T08:08:57.666Z,11.70
2018-07-04T08:09:57.629Z,12.00
2018-07-04T08:10:57.626Z,9.70
2018-07-04T08:11:57.640Z,9.60
2018-07-04T08:12:57.603Z,7.50
2018-07-04T08:13:57.597Z,12.30
2018-07-04T08:14:58.565Z,7.00
2018-07-04T08:15:57.653Z,9.10
2018-07-04T08:16:57.597Z,7.40
2018-07-04T08:17:57.578Z,9.70
2018-07-04T08:18:57.566Z,11.10
2018-07-04T08:19:57.577Z,10.80
2018-07-04T08:20:57.548Z,8.90
2018-07-04T08:21:57.561Z,8.30
2018-07-04T08:22:57.555Z,8.70
2018-07-04T08:23:57.522Z,9.70
2018-07-04T08:24:57.620Z,10.00
2018-07-04T08:25:57.528Z,8.70
2018-07-04T08:26:57.509Z,7.40
2018-07-04T08:27:57.550Z,9.40
2018-07-04T08:28:57.493Z,7.10
2018-07-04T08:29:57.512Z,11.10
2018-07-04T08:30:57.476Z,8.70
2018-07-04T08:31:57.552Z,11.50
2018-07-04T08:32:57.537Z,10.60
2018-07-04T08:33:57.511Z,10.30
2018-07-04T08:34:57.507Z,8.60
2018-07-04T08:35:57.471Z,10.10
2018-07-04T08:36:57.460Z,6.00
2018-07-04T08:37:57.627Z,12.40
2018-07-04T08:38:57.600Z,12.60
2018-07-04T08:39:57.455Z,11.40
2018-07-04T08:40:57.472Z,10.10
2018-07-04T08:41:57.475Z,10.40
2018-07-04T08:42:57.690Z,9.80
2018-07-04T08:43:57.468Z,9.40
2018-07-04T08:44:57.412Z,8.70
2018-07-04T08:45:57.419Z,11.80
2018-07-04T08:46:57.444Z,9.40
2018-07-04T08:47:57.421Z,8.50
2018-07-04T08:48:57.399Z,9.70
2018-07-04T08:49:57.365Z,13.80
2018-07-04T08:50:57.411Z,11.10
2018-07-04T08:51:57.407Z,10.10
2018-07-04T08:52:57.499Z,14.70
2018-07-04T08:53:57.372Z,11.80
2018-07-04T08:54:57.369Z,8.10
2018-07-04T08:55:57.321Z,9.00
2018-07-04T08:56:57.327Z,9.30
2018-07-04T08:57:57.360Z,12.20
2018-07-04T08:58:57.775Z,11.30
2018-07-04T08:59:57.357Z,8.60
2018-07-04T09:00:57.464Z,8.60
2018-07-04T09:01:57.372Z,8.90
2018-07-04T09:02:57.283Z,8.70
2018-07-04T09:03:57.287Z,7.70
2018-07-04T09:04:57.269Z,10.60
2018-07-04T09:05:57.278Z,6.70
2018-07-04T09:06:57.293Z,9.60
2018-07-04T09:07:57.268Z,8.50
2018-07-04T09:08:57.237Z,7.50
2018-07-04T09:09:57.233Z,7.60
2018-07-04T09:10:57.307Z,7.40
2018-07-04T09:11:57.242Z,9.90
2018-07-04T09:12:57.208Z,10.40
2018-07-04T09:13:57.204Z,11.30
2018-07-04T09:14:57.204Z,10.90
2018-07-04T09:15:57.187Z,10.90
2018-07-04T09:16:57.181Z,10.50
2018-07-04T09:17:57.183Z,9.20
2018-07-04T09:18:57.173Z,11.00
2018-07-04T09:19:57.153Z,10.60
2018-07-04T09:20:57.201Z,11.60
2018-07-04T09:21:57.152Z,10.60
2018-07-04T09:22:57.158Z,7.60
2018-07-04T09:23:57.171Z,10.10
2018-07-04T09:24:57.113Z,8.50
2018-07-04T09:25:57.112Z,7.90
2018-07-04T09:26:57.134Z,9.70
2018-07-04T09:27:57.095Z,10.10
2018-07-04T09:28:57.091Z,11.80
2018-07-04T09:29:57.081Z,7.30
2018-07-04T09:30:57.090Z,10.60
2018-07-04T09:31:57.077Z,12.40
2018-07-04T09:32:57.076Z,11.20
2018-07-04T09:33:57.039Z,8.20
2018-07-04T09:34:57.073Z,8.30
2018-07-04T09:35:57.030Z,10.60
2018-07-04T09:36:57.027Z,10.80
2018-07-04T09:37:57.095Z,10.20
2018-07-04T09:38:57.069Z,12.80
2018-07-04T09:39:57.012Z,9.60
2018-07-04T09:40:57.025Z,11.20
2018-07-04T09:41:57.010Z,10.40
2018-07-04T09:42:57.005Z,8.30
2018-07-04T09:43:57.053Z,11.70
2018-07-04T09:44:57.018Z,12.20
2018-07-04T09:45:56.974Z,7.90
2018-07-04T09:46:56.962Z,9.80
2018-07-04T09:47:56.970Z,10.30
2018-07-04T09:48:56.977Z,7.80
2018-07-04T09:49:56.997Z,9.30
2018-07-04T09:50:57.056Z,12.00
2018-07-04T09:51:56.911Z,9.10
2018-07-04T09:52:56.916Z,8.70
2018-07-04T09:53:56.937Z,10.60
2018-07-04T09:54:56.900Z,8.10
2018-07-04T09:55:56.899Z,10.50
2018-07-04T09:56:56.907Z,10.60
2018-07-04T09:57:57.038Z,9.10
2018-07-04T09:58:56.887Z,8.20
2018-07-04T09:59:56.898Z,7.10
2018-07-04T10:00:56.847Z,5.40
2018-07-04T10:01:56.899Z,11.00
2018-07-04T10:02:56.841Z,9.60
2018-07-04T10:03:56.836Z,11.80
2018-07-04T10:04:56.843Z,12.50
2018-07-04T10:05:56.834Z,7.50
2018-07-04T10:06:56.806Z,8.50
2018-07-04T10:07:56.815Z,13.80
2018-07-04T10:08:56.831Z,9.60
2018-07-04T10:09:56.800Z,12.70
2018-07-04T10:10:56.800Z,9.80
2018-07-04T10:11:56.802Z,10.00
2018-07-04T10:12:56.784Z,10.90
2018-07-04T10:13:56.804Z,9.60
2018-07-04T10:14:56.809Z,8.30
2018-07-04T10:15:56.750Z,10.10
2018-07-04T10:16:56.745Z,7.80
2018-07-04T10:17:56.787Z,11.80
2018-07-04T10:18:56.746Z,10.70
2018-07-04T10:19:56.717Z,10.00
2018-07-04T10:20:56.699Z,8.70
2018-07-04T10:21:56.705Z,14.40
2018-07-04T10:22:56.698Z,10.00
2018-07-04T10:23:56.688Z,11.70
2018-07-04T10:24:56.689Z,8.70
2018-07-04T10:25:56.681Z,9.10
2018-07-04T10:26:56.676Z,13.30
2018-07-04T10:27:56.662Z,7.90
2018-07-04T10:28:56.702Z,10.90
2018-07-04T10:29:56.646Z,11.90
2018-07-04T10:30:56.652Z,11.50
2018-07-04T10:31:56.650Z,11.50
2018-07-04T10:32:56.634Z,14.80
2018-07-04T10:33:56.694Z,10.50
2018-07-04T10:34:56.632Z,8.60
2018-07-04T10:35:56.644Z,12.00
2018-07-04T10:36:56.627Z,12.50
2018-07-04T10:37:56.605Z,14.00
2018-07-04T10:38:56.592Z,7.90
2018-07-04T10:39:56.581Z,10.40
2018-07-04T10:40:56.585Z,8.40
2018-07-04T10:41:56.569Z,13.10
2018-07-04T10:42:56.584Z,9.10
2018-07-04T10:43:56.558Z,9.50
2018-07-04T10:44:56.561Z,9.50
2018-07-04T10:45:56.537Z,8.60
2018-07-04T10:46:56.582Z,12.60
2018-07-04T10:47:56.540Z,7.60
2018-07-04T10:48:56.569Z,8.50
2018-07-04T10:49:56.514Z,8.60
2018-07-04T10:50:56.664Z,10.20
2018-07-04T10:51:56.489Z,7.90
2018-07-04T10:52:56.490Z,9.60
2018-07-04T10:53:56.605Z,6.20
2018-07-04T10:54:56.503Z,7.40
2018-07-04T10:55:56.491Z,9.90
2018-07-04T10:56:56.498Z,6.60
2018-07-04T10:57:56.474Z,9.00
2018-07-04T10:58:56.452Z,5.40
2018-07-04T10:59:56.457Z,7.80
2018-07-04T11:00:56.432Z,7.60
2018-07-04T11:01:56.493Z,8.70
2018-07-04T11:02:56.506Z,8.10
2018-07-04T11:03:56.413Z,6.70
2018-07-04T11:04:56.458Z,10.00
2018-07-04T11:05:56.438Z,10.10
2018-07-04T11:06:56.408Z,6.50
2018-07-04T11:07:56.389Z,9.00
2018-07-04T11:08:56.444Z,7.30
2018-07-04T11:09:56.430Z,6.40
2018-07-04T11:10:56.379Z,11.70
2018-07-04T11:11:56.399Z,5.80
2018-07-04T11:12:56.370Z,10.70
2018-07-04T11:13:56.400Z,8.90
2018-07-04T11:14:56.340Z,10.90
2018-07-04T11:15:56.340Z,9.50
2018-07-04T11:16:56.413Z,9.60
2018-07-04T11:17:56.323Z,6.60
2018-07-04T11:18:56.327Z,4.30
2018-07-04T11:19:56.346Z,6.20
2018-07-04T11:20:56.328Z,7.10
2018-07-04T11:21:56.302Z,6.40
2018-07-04T11:22:56.289Z,5.50
2018-07-04T11:23:56.290Z,8.10
2018-07-04T11:24:56.271Z,8.50
2018-07-04T11:25:56.295Z,9.40
2018-07-04T11:26:56.275Z,6.60
2018-07-04T11:27:56.277Z,6.20
2018-07-04T11:28:56.251Z,5.80
2018-07-04T11:29:56.252Z,6.00
2018-07-04T11:30:56.269Z,5.30
2018-07-04T11:31:56.248Z,7.00
2018-07-04T11:32:56.259Z,9.90
2018-07-04T11:33:56.258Z,5.00
2018-07-04T11:34:56.226Z,8.30
2018-07-04T11:35:56.240Z,7.50
2018-07-04T11:36:56.210Z,5.90
2018-07-04T11:37:56.200Z,5.90
2018-07-04T11:38:56.230Z,5.90
2018-07-04T11:39:56.189Z,8.90
2018-07-04T11:40:56.221Z,8.80
2018-07-04T11:41:56.176Z,6.20
2018-07-04T11:42:56.167Z,11.10
2018-07-04T11:43:56.216Z,6.10
2018-07-04T11:44:56.248Z,5.20
2018-07-04T11:45:56.254Z,7.80
2018-07-04T11:46:56.147Z,8.70
2018-07-04T11:47:56.217Z,5.60
2018-07-04T11:48:56.146Z,6.40
2018-07-04T11:49:56.143Z,10.30
2018-07-04T11:50:56.136Z,7.80
2018-07-04T11:51:56.136Z,7.50
2018-07-04T11:52:56.386Z,5.90
2018-07-04T11:53:56.169Z,9.80
2018-07-04T11:54:56.100Z,9.60
2018-07-04T11:55:56.102Z,5.50
2018-07-04T11:56:56.104Z,6.50
2018-07-04T11:57:56.083Z,9.10
2018-07-04T11:58:56.073Z,8.20
2018-07-04T11:59:56.058Z,6.30
2018-07-04T12:00:56.074Z,12.60
2018-07-04T12:01:56.079Z,6.10
2018-07-04T12:02:56.064Z,8.50
2018-07-04T12:03:56.045Z,7.00
2018-07-04T12:04:56.035Z,10.50
2018-07-04T12:05:56.030Z,9.40
2018-07-04T12:06:56.065Z,6.10
2018-07-04T12:07:56.014Z,7.20
2018-07-04T12:08:56.016Z,7.50
2018-07-04T12:09:55.993Z,10.00
2018-07-04T12:10:56.078Z,7.90
2018-07-04T12:11:55.986Z,9.20
2018-07-04T12:12:55.996Z,9.40
2018-07-04T12:13:55.987Z,9.00
2018-07-04T12:14:56.027Z,7.00
2018-07-04T12:15:55.997Z,10.10
2018-07-04T12:16:56.024Z,12.10
2018-07-04T12:17:55.966Z,9.40
2018-07-04T12:18:55.946Z,8.80
2018-07-04T12:19:55.948Z,6.00
2018-07-04T12:20:55.965Z,5.90
2018-07-04T12:21:55.953Z,5.70
2018-07-04T12:22:55.936Z,8.70
2018-07-04T12:23:55.929Z,8.50
2018-07-04T12:24:55.912Z,8.60
2018-07-04T12:25:55.940Z,6.90
2018-07-04T12:26:55.920Z,7.10
2018-07-04T12:27:55.902Z,8.50
2018-07-04T12:28:55.897Z,8.80
2018-07-04T12:29:55.892Z,6.90
2018-07-04T12:30:55.903Z,6.60
2018-07-04T12:31:55.925Z,8.50
2018-07-04T12:32:55.975Z,7.10
2018-07-04T12:33:55.907Z,11.20
2018-07-04T12:34:55.854Z,8.50
2018-07-04T12:35:55.903Z,8.20
2018-07-04T12:36:55.910Z,14.10
2018-07-04T12:37:55.846Z,7.80
2018-07-04T12:38:55.839Z,8.30
2018-07-04T12:39:55.877Z,10.10
2018-07-04T12:40:56.823Z,9.50
2018-07-04T12:41:56.811Z,8.40
2018-07-04T12:42:55.869Z,7.80
2018-07-04T12:43:55.825Z,7.10
2018-07-04T12:44:55.825Z,8.60
2018-07-04T12:45:55.825Z,9.60
2018-07-04T12:46:55.807Z,5.90
2018-07-04T12:47:56.018Z,7.10
2018-07-04T12:48:56.083Z,10.90
2018-07-04T12:49:55.835Z,8.50
2018-07-04T12:50:56.317Z,10.00
2018-07-04T12:51:57.940Z,6.90
2018-07-04T12:52:56.416Z,6.60
2018-07-04T12:54:00.155Z,8.90
2018-07-04T12:54:56.078Z,9.70
2018-07-04T12:55:55.760Z,8.30
2018-07-04T12:56:56.026Z,10.50
2018-07-04T12:57:55.765Z,8.10
2018-07-04T12:58:55.771Z,7.30
2018-07-04T12:59:56.412Z,9.60